createdAt,value
2023-04-13T00:00:03.076Z,98.2
2023-04-13T00:15:02.505Z,98.4
2023-04-13T00:30:02.965Z,98.4
2023-04-13T00:45:02.387Z,98.4
2023-04-13T01:00:02.967Z,98.6
2023-04-13T01:15:02.271Z,98.7
2023-04-13T01:30:02.687Z,98.8
2023-04-13T01:45:03.128Z,98.9
2023-04-13T02:00:02.560Z,98.9
2023-04-13T02:15:03.055Z,98.9
2023-04-13T02:30:02.441Z,98.7
2023-04-13T02:45:02.952Z,98.6
2023-04-13T03:00:02.334Z,98.4
2023-04-13T03:15:02.959Z,98.2
2023-04-13T03:30:02.273Z,98.0
2023-04-13T03:45:02.658Z,97.8
2023-04-13T04:00:03.089Z,97.6
2023-04-13T04:15:02.526Z,97.5
2023-04-13T04:30:02.984Z,97.3
2023-04-13T04:45:02.398Z,97.2
2023-04-13T05:00:02.959Z,97.4
2023-04-13T05:15:02.380Z,97.4
2023-04-13T05:30:02.752Z,97.3
2023-04-13T05:45:03.174Z,97.3
2023-04-13T06:00:02.577Z,97.4
2023-04-13T06:15:03.063Z,97.3
2023-04-13T06:30:02.444Z,97.4
2023-04-13T06:45:03.012Z,97.2
2023-04-13T07:00:02.396Z,97.1
2023-04-13T07:15:03.006Z,96.1
2023-04-13T07:30:02.297Z,94.8
2023-04-13T07:45:02.659Z,93.7
2023-04-13T08:00:03.081Z,88.6
2023-04-13T08:15:02.531Z,82.1
2023-04-13T08:30:03.030Z,77.1
2023-04-13T08:45:02.386Z,69.0
2023-04-13T09:00:03.063Z,66.8
2023-04-13T09:15:02.247Z,73.1
2023-04-13T09:30:02.716Z,80.0
2023-04-13T09:45:03.172Z,82.2
2023-04-13T10:00:02.649Z,82.6
2023-04-13T10:15:03.061Z,79.5
2023-04-13T10:30:02.494Z,77.5
2023-04-13T10:45:03.055Z,76.7
2023-04-13T11:00:02.404Z,79.4
2023-04-13T11:15:03.054Z,73.6
2023-04-13T11:30:02.308Z,68.3
2023-04-13T11:45:02.720Z,67.6
2023-04-13T12:00:03.164Z,65.6
2023-04-13T12:30:03.073Z,63.4
2023-04-13T12:45:02.428Z,58.2
2023-04-13T13:00:03.099Z,57.1
2023-04-13T13:15:02.303Z,55.6
2023-04-13T13:30:02.774Z,55.8
2023-04-13T13:45:03.265Z,57.7
2023-04-13T14:00:02.756Z,57.2
2023-04-13T14:15:03.102Z,55.5
2023-04-13T14:30:02.474Z,55.6
2023-04-13T14:45:03.082Z,61.9
2023-04-13T15:00:02.466Z,58.4
2023-04-13T15:15:03.031Z,55.1
2023-04-13T15:30:02.330Z,49.2
2023-04-13T15:45:02.713Z,49.7
2023-04-13T16:00:03.145Z,49.7
2023-04-13T16:15:02.565Z,50.8
2023-04-13T16:30:03.113Z,50.0
2023-04-13T16:45:02.469Z,50.7
2023-04-13T17:00:03.157Z,51.7
2023-04-13T17:15:02.352Z,52.0
2023-04-13T17:30:02.846Z,54.0
2023-04-13T17:45:02.285Z,54.9
2023-04-13T18:00:02.710Z,53.4
2023-04-13T18:15:03.159Z,54.0
2023-04-13T18:30:02.574Z,54.4
2023-04-13T18:45:03.113Z,57.1
2023-04-13T19:00:02.455Z,59.0
2023-04-13T19:15:03.138Z,61.7
2023-04-13T19:30:02.408Z,67.0
2023-04-13T19:45:02.805Z,67.9
2023-04-13T20:00:03.243Z,69.8
2023-04-13T20:15:02.659Z,73.3
2023-04-13T20:30:03.140Z,74.6
2023-04-13T20:45:02.537Z,77.9
2023-04-13T21:00:03.152Z,80.3
2023-04-13T21:15:02.451Z,80.7
2023-04-13T21:30:02.893Z,80.6
2023-04-13T21:45:02.312Z,82.0
2023-04-13T22:00:05.043Z,83.3
2023-04-13T22:15:03.179Z,84.3
2023-04-13T22:30:02.619Z,85.7
2023-04-13T22:45:03.186Z,85.6
2023-04-13T23:00:02.508Z,85.9
2023-04-13T23:15:03.124Z,86.7
2023-04-13T23:30:02.381Z,87.2
2023-04-13T23:45:02.802Z,87.2
